LLSD/SDV METAR and TAF weather

Enter ICAO airport designator
Station Type Date Time Source
LLSD METAR 2019/06/27 03:50 UTC NOAA

LLSD 270350Z 11004KT 9999 FEW015 24/19 Q1009


Station Type Date Time Source
LLSD Decoded METAR 2019/06/27 03:50 UTC NOAA

Tel Aviv / Sde-Dov Airport, Israel (LLSD) 32-06-53N 034-46-56E
Jun 26, 2019 - 11:50 PM EDT / 2019.06.27 0350 UTC
Wind: from the ESE (110 degrees) at 5 MPH (4 KT):0
Visibility: greater than 7 mile(s):0
Sky conditions: mostly clear
Temperature: 75 F (24 C)
Dew Point: 66 F (19 C)
Relative Humidity: 73%
Pressure (altimeter): 29.80 in. Hg (1009 hPa)
ob: LLSD 270350Z 11004KT 9999 FEW015 24/19 Q1009
cycle: 4

Station Type Date Time Source
LLSD TAF 2019/06/26 18:09 UTC NOAA

TAF TAF LLSD 261703Z 2618/2718 30008KT CAVOK
BECMG 2619/2621 VRB03KT 8000 SCT007 PROB40 2621/2705 14005KT 3000 BR BKN005
BECMG 2707/2709 27010KT 8000 SCT015 TX29/2712Z TN25/2703Z

Example: see airport list